createdAt,value
2023-03-20T00:01:02.490Z,12.20
2023-03-20T00:02:15.979Z,12.60
2023-03-20T00:03:29.865Z,12.10
2023-03-20T00:04:34.226Z,10.90
2023-03-20T00:05:57.250Z,14.40
2023-03-20T00:07:10.850Z,18.30
2023-03-20T00:08:24.363Z,20.80
2023-03-20T00:09:38.023Z,23.10
2023-03-20T00:10:51.783Z,25.40
2023-03-20T00:12:08.344Z,24.40
2023-03-20T00:13:21.992Z,26.40
2023-03-20T00:14:38.771Z,27.80
2023-03-20T00:15:43.556Z,28.10
2023-03-20T00:16:57.215Z,23.80
2023-03-20T00:17:50.909Z,21.40
2023-03-20T00:18:58.152Z,25.70
2023-03-20T00:19:52.434Z,28.10
2023-03-20T00:21:06.119Z,27.40
2023-03-20T00:22:20.931Z,27.40
2023-03-20T00:23:34.487Z,24.30
2023-03-20T00:24:48.203Z,26.30
2023-03-20T00:26:01.774Z,28.10
2023-03-20T00:27:08.471Z,21.40
2023-03-20T00:28:22.101Z,20.80
2023-03-20T00:29:35.787Z,23.30
2023-03-20T00:30:52.120Z,22.40
2023-03-20T00:32:08.467Z,21.70
2023-03-20T00:33:21.922Z,23.40
2023-03-20T00:34:35.549Z,23.40
2023-03-20T00:35:49.332Z,23.10
2023-03-20T00:37:02.894Z,24.50
2023-03-20T00:38:16.623Z,22.90
2023-03-20T00:39:30.297Z,22.10
2023-03-20T00:40:43.869Z,21.60
2023-03-20T00:42:00.585Z,23.70
2023-03-20T00:43:14.364Z,24.10
2023-03-20T00:44:28.128Z,24.20
2023-03-20T00:45:41.773Z,27.40
2023-03-20T00:46:35.266Z,25.30
2023-03-20T00:47:52.015Z,25.00
2023-03-20T00:48:54.465Z,25.50
2023-03-20T00:50:10.672Z,25.70
2023-03-20T00:51:24.372Z,27.00
2023-03-20T00:52:37.999Z,25.10
2023-03-20T00:53:51.492Z,23.70
2023-03-20T00:55:05.306Z,26.10
2023-03-20T00:55:59.697Z,25.20
2023-03-20T00:57:13.254Z,27.30
2023-03-20T00:58:16.001Z,24.50
2023-03-20T00:59:09.627Z,22.70
2023-03-20T01:00:11.765Z,23.30
2023-03-20T01:01:05.908Z,23.60
2023-03-20T01:02:19.601Z,24.80
2023-03-20T01:03:33.268Z,24.50
2023-03-20T01:04:35.525Z,24.00
2023-03-20T01:05:49.235Z,22.40
2023-03-20T01:07:02.807Z,22.10
2023-03-20T01:08:16.538Z,22.00
2023-03-20T01:09:30.347Z,23.60
2023-03-20T01:10:44.371Z,24.40
2023-03-20T01:11:58.048Z,23.10
2023-03-20T01:13:11.347Z,23.50
2023-03-20T01:14:25.081Z,21.90
2023-03-20T01:15:38.709Z,23.20
2023-03-20T01:16:52.471Z,23.10
2023-03-20T01:18:06.194Z,25.70
2023-03-20T01:19:19.896Z,31.80
2023-03-20T01:20:33.619Z,30.60
2023-03-20T01:21:47.450Z,24.50
2023-03-20T01:23:01.072Z,27.30
2023-03-20T01:24:14.742Z,25.40
2023-03-20T01:25:28.360Z,23.00
2023-03-20T01:26:31.843Z,24.40
2023-03-20T01:27:45.763Z,28.40
2023-03-20T01:28:54.175Z,28.30
2023-03-20T01:29:56.840Z,28.30
2023-03-20T01:31:03.892Z,25.20
2023-03-20T01:32:17.859Z,23.90
2023-03-20T01:33:31.664Z,23.10
2023-03-20T01:34:34.445Z,21.30
2023-03-20T01:35:48.333Z,19.30
2023-03-20T01:37:01.803Z,19.00
2023-03-20T01:38:15.426Z,21.00
2023-03-20T01:39:29.029Z,21.10
2023-03-20T01:40:42.713Z,20.40
2023-03-20T01:41:56.392Z,17.70
2023-03-20T01:43:10.012Z,20.60
2023-03-20T01:44:23.580Z,21.80
2023-03-20T01:45:37.406Z,22.20
2023-03-20T01:47:00.325Z,20.80
2023-03-20T01:47:59.063Z,21.90
2023-03-20T01:49:12.745Z,22.40
2023-03-20T01:50:24.835Z,22.60
2023-03-20T01:51:38.516Z,21.40
2023-03-20T01:52:52.268Z,23.00
2023-03-20T01:54:05.786Z,23.30
2023-03-20T01:55:19.331Z,24.20
2023-03-20T01:56:21.716Z,25.60
2023-03-20T01:57:35.202Z,26.30
2023-03-20T01:58:44.358Z,25.40
2023-03-20T01:59:58.045Z,26.00
2023-03-20T02:01:11.920Z,26.80
2023-03-20T02:02:25.568Z,26.50
2023-03-20T02:03:39.308Z,25.20
2023-03-20T02:04:54.887Z,27.30
2023-03-20T02:05:31.484Z,25.20
2023-03-20T02:06:33.748Z,25.80
2023-03-20T02:07:47.703Z,24.10
2023-03-20T02:09:01.697Z,23.50
2023-03-20T02:10:15.469Z,23.00
2023-03-20T02:11:29.040Z,24.40
2023-03-20T02:12:42.543Z,23.20
2023-03-20T02:13:56.076Z,23.90
2023-03-20T02:15:09.718Z,22.70
2023-03-20T02:16:38.653Z,23.30
2023-03-20T02:17:52.259Z,23.40
2023-03-20T02:19:05.927Z,25.50
2023-03-20T02:20:14.286Z,23.00
2023-03-20T02:21:34.182Z,23.80
2023-03-20T02:22:47.921Z,22.40
2023-03-20T02:24:04.394Z,23.00
2023-03-20T02:25:27.029Z,24.60
2023-03-20T02:27:36.604Z,22.00
2023-03-20T02:28:48.789Z,23.30
2023-03-20T02:30:20.772Z,23.50
2023-03-20T02:31:32.777Z,21.50
2023-03-20T02:32:44.920Z,22.80
2023-03-20T02:35:04.061Z,22.80
2023-03-20T02:36:29.676Z,22.80
2023-03-20T02:38:01.847Z,22.60
2023-03-20T02:39:18.810Z,23.50
2023-03-20T02:40:44.956Z,23.90
2023-03-20T02:42:17.111Z,23.50
2023-03-20T02:43:40.058Z,13.90
2023-03-20T02:45:03.631Z,22.70
2023-03-20T02:46:24.744Z,23.80
2023-03-20T02:47:41.826Z,22.60
2023-03-20T02:48:58.532Z,24.60
2023-03-20T02:50:27.092Z,23.10
2023-03-20T02:51:56.499Z,23.00
2023-03-20T02:53:17.292Z,24.30
2023-03-20T02:54:52.631Z,22.80
2023-03-20T02:56:10.980Z,23.60
2023-03-20T02:57:40.077Z,23.80
2023-03-20T02:59:01.767Z,24.20
2023-03-20T03:00:34.042Z,24.90
2023-03-20T03:01:50.867Z,26.00
2023-03-20T03:02:54.971Z,26.10
2023-03-20T03:04:11.022Z,25.80
2023-03-20T03:05:29.590Z,26.90
2023-03-20T03:06:42.845Z,27.30
2023-03-20T03:07:56.514Z,26.80
2023-03-20T03:09:10.479Z,25.60
2023-03-20T03:10:10.342Z,25.60
2023-03-20T03:11:26.836Z,25.40
2023-03-20T03:12:41.811Z,22.90
2023-03-20T03:13:59.443Z,25.60
2023-03-20T03:15:21.974Z,27.10
2023-03-20T03:16:35.684Z,24.80
2023-03-20T03:17:49.224Z,26.00
2023-03-20T03:19:02.982Z,25.10
2023-03-20T03:20:11.502Z,23.70
2023-03-20T03:21:25.190Z,24.00
2023-03-20T03:22:38.963Z,26.40
2023-03-20T03:23:52.511Z,27.90
2023-03-20T03:25:09.130Z,25.80
2023-03-20T03:26:22.749Z,26.70
2023-03-20T03:27:37.314Z,24.90
2023-03-20T03:28:50.953Z,28.70
2023-03-20T03:29:44.597Z,25.90
2023-03-20T03:31:07.176Z,26.70
2023-03-20T03:32:20.901Z,24.90
2023-03-20T03:33:38.417Z,24.70
2023-03-20T03:34:54.000Z,23.00
2023-03-20T03:36:07.712Z,24.70
2023-03-20T03:37:24.477Z,25.30
2023-03-20T03:38:38.112Z,25.20
2023-03-20T03:39:54.917Z,24.70
2023-03-20T03:41:14.153Z,24.20
2023-03-20T03:42:29.321Z,25.30
2023-03-20T03:44:09.698Z,24.40
2023-03-20T03:52:54.485Z,25.70
2023-03-20T03:54:13.697Z,25.00
2023-03-20T03:55:27.600Z,25.00
2023-03-20T03:57:26.245Z,23.90
2023-03-20T03:58:39.923Z,23.00
2023-03-20T03:59:53.833Z,24.50
2023-03-20T04:01:07.566Z,23.30
2023-03-20T04:02:21.106Z,23.40
2023-03-20T04:03:34.824Z,23.70
2023-03-20T04:04:48.529Z,22.50
2023-03-20T04:06:01.640Z,25.40
2023-03-20T04:07:15.689Z,24.50
2023-03-20T04:08:29.429Z,26.50
2023-03-20T04:09:43.038Z,24.20
2023-03-20T04:10:56.980Z,24.40
2023-03-20T04:12:10.803Z,24.90
2023-03-20T04:13:24.038Z,24.10
2023-03-20T04:14:30.040Z,22.70
2023-03-20T04:15:43.434Z,22.30
2023-03-20T04:16:57.332Z,23.00
2023-03-20T04:18:11.061Z,23.30
2023-03-20T04:19:24.773Z,23.60
2023-03-20T04:20:38.364Z,23.10
2023-03-20T04:21:51.885Z,23.80
2023-03-20T04:22:54.271Z,23.10
2023-03-20T04:24:07.824Z,22.90
2023-03-20T04:25:21.688Z,23.10
2023-03-20T04:26:35.407Z,22.30
2023-03-20T04:27:49.115Z,23.30
2023-03-20T04:29:02.918Z,24.40
2023-03-20T04:30:16.573Z,23.10
2023-03-20T04:31:33.182Z,22.30
2023-03-20T04:32:47.042Z,22.80
2023-03-20T04:33:49.020Z,21.60
2023-03-20T04:35:02.801Z,22.30
2023-03-20T04:36:16.596Z,20.40
2023-03-20T04:37:30.377Z,21.20
2023-03-20T04:38:44.052Z,22.10
2023-03-20T04:39:57.795Z,22.60
2023-03-20T04:41:11.441Z,24.10
2023-03-20T04:42:25.166Z,23.40
2023-03-20T04:43:38.780Z,22.40
2023-03-20T04:44:52.411Z,22.30
2023-03-20T04:46:06.320Z,22.50
2023-03-20T04:47:20.380Z,23.10
2023-03-20T04:48:34.118Z,24.50
2023-03-20T04:49:40.772Z,22.80
2023-03-20T04:50:50.940Z,24.10
2023-03-20T04:52:04.830Z,21.50
2023-03-20T04:53:18.506Z,22.70
2023-03-20T04:54:32.225Z,22.40
2023-03-20T04:55:35.225Z,21.80
2023-03-20T04:56:49.373Z,23.70
2023-03-20T04:58:02.917Z,22.80
2023-03-20T04:59:13.194Z,22.90
2023-03-20T05:00:26.925Z,24.70
2023-03-20T05:01:30.468Z,22.90
2023-03-20T05:02:44.291Z,22.80
2023-03-20T05:03:37.825Z,23.30
2023-03-20T05:04:55.229Z,23.70
2023-03-20T05:06:08.842Z,23.80
2023-03-20T05:07:11.408Z,22.80
2023-03-20T05:08:25.031Z,21.10
2023-03-20T05:09:31.056Z,21.10
2023-03-20T05:10:44.731Z,20.80
2023-03-20T05:11:58.540Z,19.70
2023-03-20T05:13:12.277Z,19.60
2023-03-20T05:14:05.669Z,19.40
2023-03-20T05:15:19.260Z,19.10
2023-03-20T05:16:33.093Z,17.20
2023-03-20T05:17:46.705Z,18.60
2023-03-20T05:19:00.606Z,16.00
2023-03-20T05:20:14.256Z,15.40
2023-03-20T05:21:20.728Z,14.10
2023-03-20T05:22:34.361Z,16.40
2023-03-20T05:23:48.017Z,14.20
2023-03-20T05:24:54.943Z,13.50
2023-03-20T05:26:08.515Z,13.40
2023-03-20T05:27:21.953Z,12.30
2023-03-20T05:28:35.542Z,11.90
2023-03-20T05:29:49.084Z,11.80
2023-03-20T05:31:02.949Z,11.70
2023-03-20T05:32:15.997Z,10.30
2023-03-20T05:33:32.787Z,10.20
2023-03-20T05:34:46.326Z,10.50
2023-03-20T05:35:59.925Z,10.20
2023-03-20T05:37:04.780Z,9.30
2023-03-20T05:38:18.489Z,9.60
2023-03-20T05:39:32.103Z,9.50
2023-03-20T05:40:35.110Z,8.70
2023-03-20T05:41:48.666Z,9.10
2023-03-20T05:43:02.383Z,10.50
2023-03-20T05:44:16.154Z,8.80
2023-03-20T05:45:20.798Z,8.50
2023-03-20T05:46:34.579Z,9.10
2023-03-20T05:47:48.362Z,8.00
2023-03-20T05:48:50.558Z,8.00
2023-03-20T05:50:04.334Z,7.60
2023-03-20T05:51:11.623Z,8.50
2023-03-20T05:52:25.347Z,8.10
2023-03-20T05:53:18.708Z,7.70
2023-03-20T05:54:33.461Z,7.60
2023-03-20T05:55:47.261Z,8.10
2023-03-20T05:57:01.162Z,9.70
2023-03-20T05:58:03.888Z,9.80
2023-03-20T05:59:18.645Z,10.50
2023-03-20T06:00:32.449Z,11.60
2023-03-20T06:01:45.187Z,11.30
2023-03-20T06:02:58.744Z,11.00
2023-03-20T06:04:12.413Z,11.00
2023-03-20T06:06:57.012Z,10.80
2023-03-20T06:08:10.783Z,9.00
2023-03-20T06:09:24.521Z,7.70
2023-03-20T06:10:38.340Z,7.90
2023-03-20T06:11:52.136Z,8.30
2023-03-20T06:13:05.963Z,7.90
2023-03-20T06:14:19.796Z,9.60
2023-03-20T06:15:33.830Z,8.20
2023-03-20T06:16:48.006Z,8.90
2023-03-20T06:17:50.420Z,7.40
2023-03-20T06:19:03.055Z,8.10
2023-03-20T06:20:16.719Z,7.90
2023-03-20T06:21:34.575Z,7.10
2023-03-20T06:22:48.048Z,7.70
2023-03-20T06:24:01.734Z,7.30
2023-03-20T06:25:16.097Z,7.60
2023-03-20T06:26:19.654Z,8.10
2023-03-20T06:27:25.965Z,8.10
2023-03-20T06:28:39.617Z,7.70
2023-03-20T06:29:53.127Z,8.00
2023-03-20T06:30:55.395Z,8.10
2023-03-20T06:32:08.928Z,8.20
2023-03-20T06:33:05.386Z,7.90
2023-03-20T06:34:19.021Z,7.60
2023-03-20T06:35:32.669Z,7.50
2023-03-20T06:36:46.393Z,7.50
2023-03-20T06:37:59.953Z,8.00
2023-03-20T06:39:13.574Z,7.90
2023-03-20T06:40:15.756Z,7.80
2023-03-20T06:41:33.406Z,7.80
2023-03-20T06:42:41.095Z,7.60
2023-03-20T06:43:54.615Z,7.60
2023-03-20T06:45:08.109Z,8.50
2023-03-20T06:46:11.260Z,9.50
2023-03-20T06:47:24.758Z,9.80
2023-03-20T06:48:38.273Z,9.10
2023-03-20T06:49:34.167Z,8.70
2023-03-20T06:50:47.795Z,8.20
2023-03-20T06:52:01.413Z,8.00
2023-03-20T06:53:14.917Z,8.60
2023-03-20T06:54:28.538Z,8.10
2023-03-20T06:55:43.053Z,7.70
2023-03-20T06:56:56.547Z,7.10
2023-03-20T06:58:10.023Z,7.30
2023-03-20T06:59:23.611Z,7.30
2023-03-20T07:00:37.013Z,6.70
2023-03-20T07:01:53.672Z,7.30
2023-03-20T07:03:07.285Z,7.30
2023-03-20T07:04:20.862Z,6.80
2023-03-20T07:05:34.516Z,6.70
2023-03-20T07:06:40.572Z,6.80
2023-03-20T07:07:46.774Z,7.30
2023-03-20T07:09:00.350Z,6.40
2023-03-20T07:10:13.926Z,6.70
2023-03-20T07:11:25.995Z,6.60
2023-03-20T07:13:32.652Z,6.60
2023-03-20T07:14:46.200Z,6.70
2023-03-20T07:16:03.654Z,6.50
2023-03-20T07:17:06.481Z,6.80
2023-03-20T07:18:19.965Z,6.10
2023-03-20T07:19:33.572Z,6.60
2023-03-20T07:20:47.588Z,6.60
2023-03-20T07:22:01.088Z,6.50
2023-03-20T07:22:56.871Z,6.80
2023-03-20T07:24:10.536Z,6.50
2023-03-20T07:25:35.414Z,6.90
2023-03-20T07:26:55.406Z,7.00
2023-03-20T07:28:09.177Z,6.60
2023-03-20T07:29:22.807Z,7.00
2023-03-20T07:30:36.343Z,6.40
2023-03-20T07:31:49.981Z,5.90
2023-03-20T07:32:52.325Z,7.00
2023-03-20T07:33:58.857Z,6.80
2023-03-20T07:35:12.434Z,7.10
2023-03-20T07:36:14.814Z,7.30
2023-03-20T07:37:21.138Z,6.90
2023-03-20T07:38:34.716Z,7.60
2023-03-20T07:39:48.287Z,6.90
2023-03-20T07:41:01.888Z,7.20
2023-03-20T07:42:03.971Z,6.10
2023-03-20T07:43:17.356Z,7.90
2023-03-20T07:44:23.309Z,6.50
2023-03-20T07:45:29.430Z,7.50
2023-03-20T07:46:43.039Z,7.50
2023-03-20T07:47:56.655Z,8.10
2023-03-20T07:49:10.184Z,7.70
2023-03-20T07:50:23.881Z,8.00
2023-03-20T07:51:24.988Z,8.00
2023-03-20T07:52:27.695Z,7.80
2023-03-20T07:53:41.281Z,8.10
2023-03-20T07:54:54.746Z,8.00
2023-03-20T07:56:08.237Z,8.70
2023-03-20T07:57:21.717Z,8.10
2023-03-20T07:58:35.210Z,7.70
2023-03-20T07:59:48.783Z,7.50
2023-03-20T08:00:54.798Z,8.20
2023-03-20T08:02:08.380Z,7.80
2023-03-20T08:03:22.102Z,7.60
2023-03-20T08:04:24.484Z,8.20
2023-03-20T08:05:38.365Z,8.40
2023-03-20T08:06:52.338Z,7.90
2023-03-20T08:07:56.478Z,8.30
2023-03-20T08:09:02.808Z,8.70
2023-03-20T08:10:04.848Z,8.50
2023-03-20T08:11:18.450Z,8.20
2023-03-20T08:12:31.966Z,8.30
2023-03-20T08:13:45.695Z,7.90
2023-03-20T08:14:47.974Z,8.30
2023-03-20T08:16:01.612Z,9.00
2023-03-20T08:17:14.450Z,8.50
2023-03-20T08:18:20.174Z,8.50
2023-03-20T08:19:32.506Z,8.20
2023-03-20T08:20:46.129Z,9.00
2023-03-20T08:21:59.575Z,7.90
2023-03-20T08:23:01.514Z,8.40
2023-03-20T08:24:14.983Z,8.90
2023-03-20T08:25:28.544Z,8.80
2023-03-20T08:26:42.030Z,7.80
2023-03-20T08:27:48.122Z,7.90
2023-03-20T08:28:53.985Z,7.80
2023-03-20T08:29:54.753Z,8.00
2023-03-20T08:31:08.293Z,7.80
2023-03-20T08:32:21.839Z,7.50
2023-03-20T08:33:35.370Z,8.60
2023-03-20T08:34:48.841Z,8.20
2023-03-20T08:36:02.540Z,7.90
2023-03-20T08:37:17.201Z,7.80
2023-03-20T08:38:30.753Z,7.60
2023-03-20T08:39:44.420Z,8.40
2023-03-20T08:40:57.985Z,8.80
2023-03-20T08:42:11.507Z,8.30
2023-03-20T08:43:10.102Z,8.60
2023-03-20T08:44:12.394Z,7.90
2023-03-20T08:45:25.902Z,8.20
2023-03-20T08:46:29.646Z,8.70
2023-03-20T08:47:43.427Z,9.30
2023-03-20T08:48:57.059Z,8.60
2023-03-20T08:50:10.681Z,9.10
2023-03-20T08:51:24.255Z,8.80
2023-03-20T08:52:38.121Z,8.90
2023-03-20T08:53:51.856Z,8.40
2023-03-20T08:55:05.369Z,9.00
2023-03-20T08:56:19.015Z,9.10
2023-03-20T08:57:32.482Z,8.90
2023-03-20T08:58:35.930Z,8.80
2023-03-20T08:59:49.472Z,8.80
2023-03-20T09:01:03.247Z,8.50
2023-03-20T09:02:16.943Z,8.70
2023-03-20T09:03:30.521Z,8.90
2023-03-20T09:04:36.691Z,9.20
2023-03-20T09:05:42.968Z,8.60
2023-03-20T09:06:56.443Z,9.60
2023-03-20T09:08:10.042Z,9.20
2023-03-20T09:09:23.571Z,10.30
2023-03-20T09:10:29.717Z,10.00
2023-03-20T09:11:43.272Z,9.70
2023-03-20T09:12:56.714Z,10.30
2023-03-20T09:13:53.468Z,9.80
2023-03-20T09:14:59.693Z,9.80
2023-03-20T09:16:13.799Z,9.80
2023-03-20T09:17:28.335Z,9.80
2023-03-20T09:18:34.567Z,8.70
2023-03-20T09:19:36.921Z,8.50
2023-03-20T09:20:39.498Z,8.80
2023-03-20T09:21:51.851Z,9.40
2023-03-20T09:22:48.275Z,9.20
2023-03-20T09:23:38.981Z,8.70
2023-03-20T09:24:52.558Z,9.80
2023-03-20T09:26:06.099Z,9.10
2023-03-20T09:27:19.707Z,8.90
2023-03-20T09:28:33.311Z,9.50
2023-03-20T09:29:46.815Z,9.20
2023-03-20T09:31:00.380Z,9.70
2023-03-20T09:32:04.039Z,9.60
2023-03-20T09:33:17.656Z,9.80
2023-03-20T09:34:31.627Z,8.80
2023-03-20T09:35:45.414Z,9.10
2023-03-20T09:36:58.939Z,8.50
2023-03-20T09:38:12.598Z,8.60
2023-03-20T09:39:26.061Z,8.30
2023-03-20T09:40:39.632Z,8.40
2023-03-20T09:41:59.064Z,8.90
2023-03-20T09:43:18.406Z,9.00
2023-03-20T09:44:32.047Z,8.70
2023-03-20T09:45:34.314Z,8.80
2023-03-20T09:46:36.217Z,8.20
2023-03-20T09:47:49.847Z,8.80
2023-03-20T09:49:03.431Z,8.40
2023-03-20T09:50:20.023Z,8.60
2023-03-20T09:51:36.810Z,9.60
2023-03-20T09:52:56.599Z,10.10
2023-03-20T09:54:10.534Z,9.50
2023-03-20T09:55:24.972Z,8.20
2023-03-20T09:56:43.621Z,7.50
2023-03-20T09:58:01.220Z,8.70
2023-03-20T09:59:14.793Z,7.70
2023-03-20T10:00:28.331Z,8.40
2023-03-20T10:01:41.963Z,10.30
2023-03-20T10:02:46.978Z,10.40
2023-03-20T10:04:00.631Z,10.10
2023-03-20T10:05:14.013Z,10.10
2023-03-20T10:06:27.530Z,9.30
2023-03-20T10:07:41.178Z,9.90
2023-03-20T10:08:54.681Z,9.00
2023-03-20T10:10:07.236Z,8.80
2023-03-20T10:11:23.614Z,8.30
2023-03-20T10:12:37.288Z,9.00
2023-03-20T10:13:50.926Z,8.90
2023-03-20T10:15:02.635Z,8.80
2023-03-20T10:16:16.335Z,8.40
2023-03-20T10:17:27.942Z,7.60
2023-03-20T10:18:41.695Z,9.00
2023-03-20T10:19:56.345Z,8.00
2023-03-20T10:21:09.950Z,8.40
2023-03-20T10:22:23.446Z,7.90
2023-03-20T10:23:31.010Z,7.90
2023-03-20T10:24:44.584Z,8.00
2023-03-20T10:26:01.082Z,8.40
2023-03-20T10:27:14.593Z,7.10
2023-03-20T10:28:28.269Z,7.30
2023-03-20T10:29:41.781Z,8.30
2023-03-20T10:30:57.797Z,9.00
2023-03-20T10:32:26.199Z,7.90
2023-03-20T10:33:38.076Z,8.20
2023-03-20T10:34:49.858Z,7.80
2023-03-20T10:36:09.489Z,7.70
2023-03-20T10:37:06.093Z,7.10
2023-03-20T10:38:19.644Z,7.40
2023-03-20T10:39:36.301Z,9.00
2023-03-20T10:40:38.897Z,11.20
2023-03-20T10:41:55.520Z,11.30
2023-03-20T10:43:11.819Z,9.80
2023-03-20T10:44:25.287Z,8.80
2023-03-20T10:45:41.379Z,9.10
2023-03-20T10:46:57.813Z,7.90
2023-03-20T10:48:04.454Z,7.20
2023-03-20T10:49:18.232Z,8.30
2023-03-20T10:50:16.624Z,8.10
2023-03-20T10:51:32.949Z,7.80
2023-03-20T10:52:49.464Z,7.60
2023-03-20T10:54:01.300Z,7.50
2023-03-20T10:55:14.869Z,7.50
2023-03-20T10:56:28.390Z,7.50
2023-03-20T10:57:41.924Z,7.20
2023-03-20T10:58:55.489Z,10.70
2023-03-20T11:00:14.685Z,10.40
2023-03-20T11:01:12.351Z,7.90
2023-03-20T11:02:14.328Z,9.70
2023-03-20T11:03:28.040Z,7.90
2023-03-20T11:04:41.493Z,7.50
2023-03-20T11:06:06.639Z,6.90
2023-03-20T11:07:22.603Z,6.80
2023-03-20T11:08:45.986Z,6.80
2023-03-20T11:09:59.455Z,7.20
2023-03-20T11:11:04.130Z,7.40
2023-03-20T11:12:17.598Z,7.80
2023-03-20T11:13:23.423Z,6.80
2023-03-20T11:14:36.926Z,6.90
2023-03-20T11:15:49.029Z,6.80
2023-03-20T11:17:06.247Z,7.40
2023-03-20T11:18:19.909Z,7.00
2023-03-20T11:19:33.551Z,6.90
2023-03-20T11:20:47.251Z,6.40
2023-03-20T11:21:54.371Z,7.00
2023-03-20T11:23:07.909Z,7.10
2023-03-20T11:24:21.523Z,7.10
2023-03-20T11:25:23.554Z,6.00
2023-03-20T11:26:43.474Z,7.30
2023-03-20T11:27:57.007Z,6.80
2023-03-20T11:29:10.529Z,6.80
2023-03-20T11:30:24.238Z,6.60
2023-03-20T11:31:38.268Z,6.70
2023-03-20T11:32:58.045Z,6.80
2023-03-20T11:34:11.759Z,6.60
2023-03-20T11:35:17.672Z,6.60
2023-03-20T11:36:32.363Z,6.60
2023-03-20T11:37:48.979Z,7.40
2023-03-20T11:39:02.607Z,7.30
2023-03-20T11:40:16.211Z,6.90
2023-03-20T11:41:29.800Z,7.30
2023-03-20T11:42:43.329Z,7.30
2023-03-20T11:43:56.837Z,7.40
2023-03-20T11:45:10.349Z,7.20
2023-03-20T11:46:23.975Z,7.40
2023-03-20T11:47:37.497Z,6.90
2023-03-20T11:48:59.875Z,7.90
2023-03-20T11:50:02.105Z,6.60
2023-03-20T11:50:57.470Z,6.50
2023-03-20T11:52:10.998Z,7.00
2023-03-20T11:53:24.508Z,7.70
2023-03-20T11:54:38.014Z,7.70
2023-03-20T11:55:54.244Z,6.90
2023-03-20T11:57:07.753Z,6.60
2023-03-20T11:58:11.333Z,7.20
2023-03-20T11:59:22.915Z,7.30
2023-03-20T12:00:36.743Z,7.40
2023-03-20T12:01:50.490Z,7.00
2023-03-20T12:03:04.145Z,6.90
2023-03-20T12:04:19.070Z,7.20
2023-03-20T12:05:32.776Z,7.30
2023-03-20T12:06:46.365Z,7.30
2023-03-20T12:08:09.236Z,7.00
2023-03-20T12:09:22.766Z,7.30
2023-03-20T12:10:34.317Z,7.30
2023-03-20T12:11:38.051Z,8.00
2023-03-20T12:12:41.274Z,7.60
2023-03-20T12:14:01.067Z,7.60
2023-03-20T12:15:20.425Z,7.40
2023-03-20T12:16:36.588Z,8.10
2023-03-20T12:17:56.235Z,7.80
2023-03-20T12:19:12.410Z,7.20
2023-03-20T12:20:26.035Z,6.90
2023-03-20T12:21:51.574Z,6.50
2023-03-20T12:23:05.195Z,7.30
2023-03-20T12:24:16.732Z,7.10
2023-03-20T12:25:30.253Z,6.60
2023-03-20T12:26:36.357Z,7.50
2023-03-20T12:27:55.655Z,7.50
2023-03-20T12:29:18.033Z,7.50
2023-03-20T12:30:40.538Z,7.30
2023-03-20T12:32:03.219Z,6.50
2023-03-20T12:33:34.912Z,7.20
2023-03-20T12:34:51.272Z,7.30
2023-03-20T12:36:07.510Z,6.90
2023-03-20T12:37:24.070Z,7.00
2023-03-20T12:38:34.738Z,6.80
2023-03-20T12:39:51.708Z,7.80
2023-03-20T12:41:05.395Z,7.90
2023-03-20T12:42:18.937Z,7.60
2023-03-20T12:43:35.340Z,7.20
2023-03-20T12:45:02.085Z,8.20
2023-03-20T12:46:44.604Z,6.80
2023-03-20T12:48:04.367Z,7.90
2023-03-20T12:49:17.977Z,7.20
2023-03-20T12:50:34.368Z,7.30
2023-03-20T12:51:48.067Z,7.10
2023-03-20T12:53:02.642Z,7.30
2023-03-20T12:54:19.272Z,7.00
2023-03-20T12:55:45.113Z,8.40
2023-03-20T12:57:07.436Z,7.30
2023-03-20T12:59:14.336Z,7.40
2023-03-20T13:00:26.014Z,7.40
2023-03-20T13:01:28.327Z,6.70
2023-03-20T13:02:44.996Z,6.50
2023-03-20T13:04:07.308Z,7.60
2023-03-20T13:05:26.662Z,7.30
2023-03-20T13:06:43.259Z,7.70
2023-03-20T13:07:59.731Z,7.90
2023-03-20T13:09:13.374Z,8.30
2023-03-20T13:10:37.690Z,7.80
2023-03-20T13:11:58.592Z,7.60
2023-03-20T13:13:20.770Z,7.60
2023-03-20T13:14:20.908Z,7.70
2023-03-20T13:15:46.262Z,7.60
2023-03-20T13:17:06.825Z,8.10
2023-03-20T13:18:24.088Z,8.20
2023-03-20T13:21:57.965Z,7.60
2023-03-20T13:23:17.681Z,7.90
2023-03-20T13:24:34.660Z,7.90
2023-03-20T13:25:46.757Z,8.50
2023-03-20T13:27:13.482Z,9.30
2023-03-20T13:33:31.799Z,12.10
2023-03-20T13:34:48.476Z,12.30
2023-03-20T13:35:47.637Z,11.10
2023-03-20T13:36:43.803Z,10.90
2023-03-20T13:38:06.365Z,10.60
2023-03-20T13:39:20.121Z,11.00
2023-03-20T13:40:39.904Z,11.00
2023-03-20T13:41:44.227Z,11.10
2023-03-20T13:42:53.496Z,11.60
2023-03-20T13:43:35.448Z,11.20
2023-03-20T13:44:49.268Z,11.20
2023-03-20T13:46:11.782Z,10.10
2023-03-20T13:47:25.495Z,11.00
2023-03-20T13:48:39.156Z,11.00
2023-03-20T13:49:55.840Z,11.50
2023-03-20T13:51:15.436Z,11.80
2023-03-20T13:52:47.394Z,11.40
2023-03-20T13:54:06.647Z,12.00
2023-03-20T13:55:20.438Z,11.40
2023-03-20T13:56:36.433Z,11.10
2023-03-20T13:57:49.955Z,11.80
2023-03-20T13:59:03.563Z,11.20
2023-03-20T14:00:17.176Z,10.10
2023-03-20T14:01:30.839Z,10.40
2023-03-20T14:02:50.650Z,10.30
2023-03-20T14:04:10.285Z,10.60
2023-03-20T14:05:12.770Z,10.90
2023-03-20T14:06:26.803Z,10.90
2023-03-20T14:07:25.775Z,10.00
2023-03-20T14:08:19.496Z,11.30
2023-03-20T14:09:36.336Z,10.80
2023-03-20T14:11:01.938Z,10.80
2023-03-20T14:12:18.682Z,10.60
2023-03-20T14:13:35.782Z,10.40
2023-03-20T14:14:50.531Z,11.00
2023-03-20T14:16:08.094Z,11.80
2023-03-20T14:17:22.205Z,11.20
2023-03-20T14:18:35.786Z,10.40
2023-03-20T14:19:49.567Z,9.80
2023-03-20T14:21:15.085Z,10.40
2023-03-20T14:22:28.647Z,10.40
2023-03-20T14:23:42.787Z,10.80
2023-03-20T14:24:56.533Z,11.80
2023-03-20T14:26:10.150Z,10.70
2023-03-20T14:27:36.736Z,10.50
2023-03-20T14:28:55.128Z,10.50
2023-03-20T14:30:12.428Z,10.10
2023-03-20T14:31:27.572Z,10.60
2023-03-20T14:32:55.153Z,10.50
2023-03-20T14:34:08.958Z,10.90
2023-03-20T14:35:25.581Z,11.00
2023-03-20T14:36:57.779Z,11.60
2023-03-20T14:38:11.642Z,11.20
2023-03-20T14:39:10.533Z,11.30
2023-03-20T14:40:13.226Z,12.30
2023-03-20T14:41:26.963Z,12.00
2023-03-20T14:42:55.790Z,11.90
2023-03-20T14:44:07.630Z,11.60
2023-03-20T14:45:29.983Z,12.00
2023-03-20T14:46:43.717Z,11.60
2023-03-20T14:48:03.641Z,11.40
2023-03-20T14:49:17.285Z,11.60
2023-03-20T14:50:31.168Z,13.30
2023-03-20T14:51:43.319Z,14.80
2023-03-20T14:53:50.352Z,17.40
2023-03-20T14:55:03.956Z,18.10
2023-03-20T14:56:29.665Z,17.00
2023-03-20T14:57:59.123Z,15.20
2023-03-20T14:59:11.431Z,13.60
2023-03-20T15:00:24.946Z,14.40
2023-03-20T15:01:38.537Z,14.90
2023-03-20T15:03:01.370Z,14.70
2023-03-20T15:04:14.876Z,15.00
2023-03-20T15:05:28.420Z,16.50
2023-03-20T15:06:42.082Z,17.50
2023-03-20T15:07:54.609Z,20.00
2023-03-20T15:09:11.020Z,19.70
2023-03-20T15:10:24.693Z,20.20
2023-03-20T15:11:38.319Z,19.40
2023-03-20T15:12:55.225Z,18.30
2023-03-20T15:14:08.849Z,16.40
2023-03-20T15:15:25.348Z,15.80
2023-03-20T15:16:39.405Z,16.20
2023-03-20T15:17:53.711Z,17.50
2023-03-20T15:21:40.238Z,14.90
2023-03-20T15:22:55.670Z,14.00
2023-03-20T15:24:11.388Z,14.40
2023-03-20T15:25:24.973Z,14.20
2023-03-20T15:26:29.110Z,12.90
2023-03-20T15:27:42.746Z,11.70
2023-03-20T15:28:56.363Z,13.10
2023-03-20T15:29:53.247Z,13.60
2023-03-20T15:31:07.757Z,13.30
2023-03-20T15:32:21.291Z,13.30
2023-03-20T15:33:35.727Z,13.90
2023-03-20T15:34:49.445Z,13.40
2023-03-20T15:36:05.648Z,13.90
2023-03-20T15:37:20.309Z,14.30
2023-03-20T15:38:34.074Z,13.90
2023-03-20T15:39:47.762Z,14.80
2023-03-20T15:41:04.151Z,14.10
2023-03-20T15:42:17.999Z,13.80
2023-03-20T15:43:34.279Z,14.70
2023-03-20T15:44:53.637Z,14.10
2023-03-20T15:46:18.115Z,14.10
2023-03-20T15:47:33.001Z,13.60
2023-03-20T15:48:40.081Z,14.70
2023-03-20T15:49:53.953Z,14.10
2023-03-20T15:51:08.258Z,13.90
2023-03-20T15:52:22.179Z,14.10
2023-03-20T15:53:30.135Z,14.70
2023-03-20T15:54:43.556Z,14.60
2023-03-20T15:56:04.459Z,15.50
2023-03-20T15:57:28.930Z,15.00
2023-03-20T15:58:42.480Z,14.90
2023-03-20T15:59:56.078Z,14.80
2023-03-20T16:01:12.711Z,15.60
2023-03-20T16:02:26.313Z,15.10
2023-03-20T16:03:40.037Z,15.40
2023-03-20T16:04:57.904Z,14.70
2023-03-20T16:05:52.115Z,15.80
2023-03-20T16:07:06.186Z,16.30
2023-03-20T16:08:21.624Z,15.10
2023-03-20T16:09:38.038Z,19.30
2023-03-20T16:10:57.808Z,24.30
2023-03-20T16:12:14.443Z,21.40
2023-03-20T16:13:29.573Z,16.00
2023-03-20T16:14:26.156Z,16.20
2023-03-20T16:15:39.950Z,15.40
2023-03-20T16:16:53.151Z,13.90
2023-03-20T16:18:06.698Z,14.50
2023-03-20T16:19:20.418Z,14.00
2023-03-20T16:20:23.068Z,12.90